Wetterdaten: Woche 17.11.08 - 23.11.08 (KW47)
Datum Zeit Temp. A. Feuchte A. Luftdruck Regen Wind Richtung Taupunkt Windchill Windben
17.11.2008 00:00 8,7 C 82 % 1022,8 hPa 0,0 l/m 7,2 km/h (2 Bft) NW 5,7 C 7,9 C 16,9 km/h (3 Bft)
17.11.2008 01:00 8,1 C 84 % 1023,0 hPa 0,6 l/m 8,6 km/h (2 Bft) W-NW 5,5 C 6,5 C 21,7 km/h (4 Bft)
17.11.2008 02:00 7,7 C 82 % 1023,7 hPa 0,3 l/m 9,4 km/h (2 Bft) NW 4,9 C 5,6 C 21,7 km/h (4 Bft)
17.11.2008 03:00 6,9 C 75 % 1024,3 hPa 0,0 l/m 9,1 km/h (2 Bft) NW 2,8 C 4,9 C 20,1 km/h (4 Bft)
17.11.2008 04:00 6,3 C 74 % 1025,2 hPa 0,0 l/m 8,1 km/h (2 Bft) NW 2,0 C 4,9 C 18,9 km/h (3 Bft)
17.11.2008 05:00 5,7 C 72 % 1025,9 hPa 0,0 l/m 8,1 km/h (2 Bft) NW 1,1 C 4,3 C 19,3 km/h (3 Bft)
17.11.2008 06:00 5,9 C 73 % 1026,0 hPa 0,0 l/m 7,2 km/h (2 Bft) W-NW 1,4 C 5,1 C 21,3 km/h (4 Bft)
17.11.2008 07:00 6,1 C 68 % 1026,2 hPa 0,0 l/m 8,1 km/h (2 Bft) NW 0,6 C 4,7 C 19,8 km/h (4 Bft)
17.11.2008 08:00 6,6 C 63 % 1026,9 hPa 0,0 l/m 10,5 km/h (2 Bft) NW 0,0 C 3,5 C 28,2 km/h (4 Bft)
17.11.2008 09:00 6,8 C 62 % 1027,6 hPa 0,0 l/m 8,6 km/h (2 Bft) W -0,0 C 5,1 C 23,6 km/h (4 Bft)
17.11.2008 10:00 7,0 C 64 % 1028,1 hPa 0,0 l/m 9,6 km/h (2 Bft) NW 0,7 C 4,6 C 25,8 km/h (4 Bft)
17.11.2008 11:00 7,0 C 69 % 1028,2 hPa 0,0 l/m 10,5 km/h (2 Bft) W-NW 1,7 C 4,0 C 25,7 km/h (4 Bft)
17.11.2008 12:00 6,4 C 73 % 1027,9 hPa 0,0 l/m 10,5 km/h (2 Bft) W-NW 1,9 C 3,3 C 26,5 km/h (4 Bft)
17.11.2008 13:00 6,0 C 76 % 1028,1 hPa 0,0 l/m 8,0 km/h (2 Bft) W 2,1 C 4,7 C 21,7 km/h (4 Bft)
17.11.2008 14:00 6,0 C 77 % 1027,9 hPa 0,0 l/m 6,9 km/h (2 Bft) W-NW 2,3 C 5,5 C 19,7 km/h (3 Bft)
17.11.2008 15:00 5,8 C 74 % 1027,7 hPa 0,0 l/m 7,8 km/h (2 Bft) W 1,6 C 4,7 C 19,7 km/h (3 Bft)
17.11.2008 16:00 5,4 C 75 % 1027,9 hPa 0,0 l/m 4,9 km/h (1 Bft) W-SW 1,3 C 5,4 C 12,9 km/h (3 Bft)
17.11.2008 17:00 5,3 C 76 % 1028,0 hPa 0,0 l/m 2,7 km/h (1 Bft) W 1,4 C 5,3 C 8,8 km/h (2 Bft)
17.11.2008 18:00 5,4 C 75 % 1027,9 hPa 0,0 l/m 4,4 km/h (1 Bft) NW 1,3 C 5,4 C 12,1 km/h (2 Bft)
17.11.2008 19:00 4,9 C 77 % 1027,7 hPa 0,0 l/m 3,8 km/h (1 Bft) N-NW 1,1 C 4,9 C 7,6 km/h (2 Bft)
17.11.2008 20:00 4,5 C 73 % 1027,5 hPa 0,0 l/m 4,5 km/h (1 Bft) NW 0,0 C 4,5 C 9,7 km/h (2 Bft)
17.11.2008 21:00 4,2 C 70 % 1027,8 hPa 0,0 l/m 1,3 km/h (1 Bft) N-NW -0,8 C 4,2 C 6,0 km/h (2 Bft)
17.11.2008 22:00 3,7 C 70 % 1027,6 hPa 0,0 l/m 0,8 km/h (0 Bft) N -1,2 C 3,7 C 3,6 km/h (1 Bft)
17.11.2008 23:00 2,9 C 72 % 1027,2 hPa 0,0 l/m 0,2 km/h (0 Bft) N -1,8 C 2,9 C 2,0 km/h (1 Bft)
18.11.2008 00:00 1,1 C 77 % 1026,9 hPa 0,0 l/m 0,1 km/h (0 Bft) N -2,4 C 1,1 C 1,2 km/h (1 Bft)
18.11.2008 01:00 0,1 C 82 % 1026,3 hPa 0,0 l/m 0,7 km/h (0 Bft) N -2,6 C 0,1 C 3,2 km/h (1 Bft)
18.11.2008 02:00 -0,8 C 83 % 1025,6 hPa 0,0 l/m 0,1 km/h (0 Bft) N -3,3 C -0,8 C 1,6 km/h (1 Bft)
18.11.2008 03:00 -1,9 C 84 % 1024,7 hPa 0,0 l/m 0,0 km/h (0 Bft) N -4,3 C -1,9 C 0,4 km/h (0 Bft)
18.11.2008 04:00 -2,5 C 86 % 1023,9 hPa 0,0 l/m 0,1 km/h (0 Bft) N -4,5 C -2,5 C 1,2 km/h (1 Bft)
18.11.2008 05:00 -3,0 C 87 % 1023,3 hPa 0,0 l/m 0,0 km/h (0 Bft) N -4,9 C -3,0 C 1,6 km/h (1 Bft)
18.11.2008 06:00 -3,8 C 87 % 1022,8 hPa 0,0 l/m 0,0 km/h (0 Bft) N -5,6 C -3,8 C 0,0 km/h (0 Bft)
18.11.2008 07:00 -4,2 C 88 % 1022,5 hPa 0,0 l/m 0,0 km/h (0 Bft) N -5,9 C -4,2 C 0,0 km/h (0 Bft)
18.11.2008 08:00 -2,8 C 90 % 1021,8 hPa 0,0 l/m 0,0 km/h (0 Bft) N -4,2 C -2,8 C 3,2 km/h (1 Bft)
18.11.2008 09:00 -0,0 C 86 % 1021,0 hPa 0,0 l/m 0,8 km/h (0 Bft) S-SO -2,1 C -0,0 C 5,6 km/h (1 Bft)
18.11.2008 10:00 2,7 C 75 % 1019,9 hPa 0,0 l/m 1,6 km/h (1 Bft) S-SO -1,3 C 2,7 C 9,6 km/h (2 Bft)
18.11.2008 11:00 3,8 C 72 % 1019,1 hPa 0,0 l/m 3,2 km/h (1 Bft) SO -0,8 C 3,8 C 12,9 km/h (3 Bft)
18.11.2008 12:00 5,3 C 66 % 1018,3 hPa 0,0 l/m 3,2 km/h (1 Bft) S-SO -0,7 C 5,3 C 14,5 km/h (3 Bft)
18.11.2008 13:00 5,8 C 64 % 1017,7 hPa 0,0 l/m 1,6 km/h (1 Bft) O -0,6 C 5,8 C 8,0 km/h (2 Bft)
18.11.2008 14:00 6,1 C 62 % 1017,2 hPa 0,0 l/m 0,7 km/h (0 Bft) S-SO -0,7 C 6,1 C 4,0 km/h (1 Bft)
18.11.2008 15:00 5,3 C 67 % 1016,7 hPa 0,0 l/m 1,1 km/h (0 Bft) O -0,3 C 5,3 C 3,6 km/h (1 Bft)
18.11.2008 16:00 3,4 C 76 % 1016,8 hPa 0,0 l/m 0,9 km/h (0 Bft) N -0,5 C 3,4 C 2,4 km/h (1 Bft)
18.11.2008 17:00 2,1 C 80 % 1016,8 hPa 0,0 l/m 0,0 km/h (0 Bft) N -1,0 C 2,1 C 0,0 km/h (0 Bft)
18.11.2008 18:00 1,3 C 80 % 1016,8 hPa 0,0 l/m 0,0 km/h (0 Bft) N -1,7 C 1,3 C 0,8 km/h (0 Bft)
18.11.2008 19:00 0,3 C 84 % 1016,4 hPa 0,0 l/m 0,2 km/h (0 Bft) N -2,1 C 0,3 C 2,8 km/h (1 Bft)
18.11.2008 20:00 0,8 C 86 % 1016,4 hPa 0,0 l/m 0,5 km/h (0 Bft) N -1,3 C 0,8 C 3,6 km/h (1 Bft)
18.11.2008 21:00 1,1 C 86 % 1016,4 hPa 0,0 l/m 0,0 km/h (0 Bft) N -1,1 C 1,1 C 1,2 km/h (1 Bft)
18.11.2008 22:00 1,5 C 87 % 1016,0 hPa 0,0 l/m 0,0 km/h (0 Bft) N -0,4 C 1,5 C 0,8 km/h (0 Bft)
18.11.2008 23:00 2,1 C 86 % 1015,5 hPa 0,0 l/m 0,4 km/h (0 Bft) N -0,0 C 2,1 C 3,6 km/h (1 Bft)
19.11.2008 00:00 2,4 C 85 % 1015,4 hPa 0,0 l/m 0,0 km/h (0 Bft) N 0,0 C 2,4 C 0,8 km/h (0 Bft)
19.11.2008 01:00 1,3 C 83 % 1015,3 hPa 0,0 l/m 0,1 km/h (0 Bft) N -1,2 C 1,3 C 1,2 km/h (1 Bft)
19.11.2008 02:00 0,3 C 86 % 1015,0 hPa 0,0 l/m 0,3 km/h (0 Bft) SO -1,7 C 0,3 C 3,2 km/h (1 Bft)
19.11.2008 03:00 1,3 C 88 % 1014,7 hPa 0,0 l/m 1,4 km/h (1 Bft) O-SO -0,4 C 1,3 C 6,8 km/h (2 Bft)
19.11.2008 04:00 5,9 C 79 % 1014,5 hPa 0,0 l/m 6,3 km/h (2 Bft) W 2,5 C 5,2 C 21,3 km/h (4 Bft)
19.11.2008 05:00 7,4 C 72 % 1014,6 hPa 0,0 l/m 9,0 km/h (2 Bft) W 2,7 C 5,5 C 22,5 km/h (4 Bft)
19.11.2008 06:00 7,4 C 75 % 1014,8 hPa 0,3 l/m 10,6 km/h (2 Bft) W-NW 3,3 C 4,4 C 26,9 km/h (4 Bft)
19.11.2008 07:00 7,0 C 79 % 1015,3 hPa 0,0 l/m 13,3 km/h (3 Bft) SW 3,5 C 2,4 C 32,2 km/h (5 Bft)
19.11.2008 08:00 6,9 C 79 % 1015,9 hPa 0,0 l/m 10,7 km/h (2 Bft) N-NW 3,5 C 3,7 C 28,5 km/h (4 Bft)
19.11.2008 09:00 7,4 C 77 % 1016,3 hPa 0,0 l/m 12,1 km/h (2 Bft) W 3,7 C 3,5 C 27,0 km/h (4 Bft)
19.11.2008 10:00 7,7 C 77 % 1016,7 hPa 0,0 l/m 10,1 km/h (2 Bft) W-SW 3,9 C 5,1 C 23,7 km/h (4 Bft)
19.11.2008 11:00 8,2 C 73 % 1016,6 hPa 0,0 l/m 10,0 km/h (2 Bft) W-NW 3,7 C 5,6 C 25,0 km/h (4 Bft)
19.11.2008 12:00 8,2 C 73 % 1016,2 hPa 0,0 l/m 8,6 km/h (2 Bft) NW 3,7 C 6,6 C 22,9 km/h (4 Bft)
19.11.2008 13:00 8,1 C 71 % 1016,5 hPa 0,0 l/m 7,6 km/h (2 Bft) NW 3,1 C 6,6 C 16,1 km/h (3 Bft)
19.11.2008 14:00 7,8 C 72 % 1016,5 hPa 0,0 l/m 2,1 km/h (1 Bft) NW 3,1 C 7,8 C 4,8 km/h (1 Bft)
19.11.2008 15:00 8,1 C 70 % 1016,5 hPa 0,0 l/m 5,3 km/h (1 Bft) NW 2,9 C 7,8 C 7,2 km/h (2 Bft)
19.11.2008 16:00 7,9 C 71 % 1016,3 hPa 0,0 l/m 7,5 km/h (2 Bft) W-NW 2,9 C 7,0 C 19,3 km/h (3 Bft)
19.11.2008 17:00 8,1 C 69 % 1016,2 hPa 0,0 l/m 10,2 km/h (2 Bft) W 2,7 C 5,4 C 28,1 km/h (4 Bft)
19.11.2008 18:00 8,5 C 65 % 1016,3 hPa 0,0 l/m 13,3 km/h (3 Bft) W 2,3 C 4,1 C 32,6 km/h (5 Bft)
19.11.2008 19:00 8,6 C 67 % 1016,3 hPa 0,0 l/m 11,9 km/h (2 Bft) W 2,8 C 5,0 C 29,8 km/h (5 Bft)
19.11.2008 20:00 8,6 C 69 % 1015,8 hPa 0,0 l/m 9,5 km/h (2 Bft) W-NW 3,2 C 6,2 C 27,4 km/h (4 Bft)
19.11.2008 21:00 8,8 C 65 % 1015,5 hPa 0,0 l/m 8,3 km/h (2 Bft) W-SW 2,6 C 7,5 C 24,9 km/h (4 Bft)
19.11.2008 22:00 9,0 C 66 % 1015,1 hPa 0,0 l/m 8,5 km/h (2 Bft) W-NW 3,0 C 7,5 C 27,4 km/h (4 Bft)
19.11.2008 23:00 9,1 C 64 % 1015,0 hPa 0,0 l/m 9,8 km/h (2 Bft) S-SW 2,6 C 6,8 C 27,8 km/h (4 Bft)
20.11.2008 00:00 9,2 C 62 % 1014,3 hPa 0,0 l/m 10,8 km/h (2 Bft) W 2,1 C 6,2 C 26,9 km/h (4 Bft)
20.11.2008 01:00 9,3 C 59 % 1013,5 hPa 0,0 l/m 9,7 km/h (2 Bft) W 1,7 C 7,0 C 25,3 km/h (4 Bft)
20.11.2008 02:00 9,6 C 58 % 1013,0 hPa 0,0 l/m 12,3 km/h (3 Bft) SW 1,8 C 5,9 C 31,8 km/h (5 Bft)
20.11.2008 03:00 9,7 C 60 % 1012,5 hPa 0,0 l/m 14,1 km/h (3 Bft) W-SW 2,2 C 5,2 C 34,2 km/h (5 Bft)
20.11.2008 04:00 9,8 C 60 % 1011,7 hPa 0,0 l/m 18,0 km/h (3 Bft) W 2,3 C 3,8 C 41,0 km/h (6 Bft)
20.11.2008 05:00 9,7 C 61 % 1011,5 hPa 0,0 l/m 12,8 km/h (3 Bft) W-NW 2,6 C 6,0 C 35,0 km/h (5 Bft)
20.11.2008 06:00 9,8 C 61 % 1011,5 hPa 0,0 l/m 13,4 km/h (3 Bft) W 2,6 C 5,6 C 39,8 km/h (6 Bft)
20.11.2008 07:00 9,9 C 59 % 1011,4 hPa 0,0 l/m 15,0 km/h (3 Bft) W 2,3 C 5,0 C 40,7 km/h (6 Bft)
20.11.2008 08:00 10,1 C 59 % 1010,7 hPa 0,0 l/m 16,9 km/h (3 Bft) W-SW 2,3 C 4,5 C 45,9 km/h (6 Bft)
20.11.2008 09:00 10,1 C 62 % 1010,5 hPa 0,0 l/m 15,3 km/h (3 Bft) W 3,1 C 5,2 C 45,0 km/h (6 Bft)
20.11.2008 10:00 10,2 C 62 % 1009,9 hPa 0,0 l/m 20,1 km/h (4 Bft) W 3,3 C 3,5 C 54,8 km/h (7 Bft)
20.11.2008 11:00 10,2 C 61 % 1009,0 hPa 0,0 l/m 16,1 km/h (3 Bft) W 3,0 C 4,9 C 43,4 km/h (6 Bft)
20.11.2008 12:00 10,6 C 59 % 1008,8 hPa 0,0 l/m 16,9 km/h (3 Bft) W 2,8 C 5,1 C 44,3 km/h (6 Bft)
20.11.2008 13:00 11,0 C 57 % 1008,0 hPa 0,0 l/m 16,6 km/h (3 Bft) W 2,9 C 5,8 C 43,4 km/h (6 Bft)
20.11.2008 14:00 11,0 C 59 % 1008,0 hPa 0,0 l/m 14,5 km/h (3 Bft) W 3,3 C 6,6 C 45,1 km/h (6 Bft)
20.11.2008 15:00 9,8 C 71 % 1007,7 hPa 0,3 l/m 12,9 km/h (3 Bft) W 4,7 C 5,9 C 37,8 km/h (5 Bft)
20.11.2008 16:00 10,3 C 65 % 1006,9 hPa 0,0 l/m 12,6 km/h (3 Bft) W-NW 4,0 C 6,9 C 35,0 km/h (5 Bft)
20.11.2008 17:00 10,2 C 66 % 1006,5 hPa 0,0 l/m 18,0 km/h (3 Bft) W 4,0 C 4,2 C 46,3 km/h (6 Bft)
20.11.2008 18:00 10,3 C 66 % 1006,6 hPa 0,0 l/m 16,5 km/h (3 Bft) SW 4,2 C 4,9 C 39,4 km/h (6 Bft)
20.11.2008 19:00 10,6 C 65 % 1006,2 hPa 0,0 l/m 18,8 km/h (3 Bft) W 4,3 C 4,4 C 46,3 km/h (6 Bft)
20.11.2008 20:00 10,7 C 65 % 1005,0 hPa 0,0 l/m 18,4 km/h (3 Bft) W-SW 4,3 C 4,7 C 44,7 km/h (6 Bft)
20.11.2008 21:00 10,8 C 64 % 1004,7 hPa 0,0 l/m 16,8 km/h (3 Bft) W-NW 4,2 C 5,4 C 39,0 km/h (6 Bft)
20.11.2008 22:00 11,0 C 62 % 1004,0 hPa 0,0 l/m 17,9 km/h (3 Bft) W 4,1 C 5,3 C 45,0 km/h (6 Bft)
20.11.2008 23:00 11,2 C 62 % 1004,0 hPa 0,0 l/m 21,2 km/h (4 Bft) W 4,1 C 4,5 C 52,3 km/h (7 Bft)
21.11.2008 00:00 10,6 C 67 % 1004,1 hPa 0,3 l/m 21,3 km/h (4 Bft) W 4,7 C 3,8 C 49,9 km/h (6 Bft)
21.11.2008 01:00 7,4 C 79 % 1005,4 hPa 7,2 l/m 14,1 km/h (3 Bft) N-NW 3,9 C 2,6 C 35,0 km/h (5 Bft)
21.11.2008 02:00 5,4 C 88 % 1004,8 hPa 4,2 l/m 6,2 km/h (2 Bft) NW 3,5 C 5,0 C 14,1 km/h (3 Bft)
21.11.2008 03:00 5,0 C 89 % 1004,5 hPa 6,9 l/m 4,8 km/h (1 Bft) W 3,4 C 4,5 C 11,6 km/h (2 Bft)
21.11.2008 04:00 5,2 C 90 % 1004,3 hPa 5,1 l/m 7,8 km/h (2 Bft) NW 3,6 C 3,9 C 18,5 km/h (3 Bft)
21.11.2008 05:00 5,3 C 89 % 1003,5 hPa 1,5 l/m 3,3 km/h (1 Bft) W 3,7 C 5,3 C 8,8 km/h (2 Bft)
21.11.2008 06:00 5,5 C 89 % 1003,2 hPa 2,4 l/m 8,5 km/h (2 Bft) W 3,8 C 3,4 C 23,0 km/h (4 Bft)
21.11.2008 07:00 4,8 C 87 % 1002,8 hPa 2,4 l/m 7,9 km/h (2 Bft) W 2,8 C 3,4 C 20,1 km/h (4 Bft)
21.11.2008 08:00 4,6 C 89 % 1002,1 hPa 2,7 l/m 5,6 km/h (1 Bft) W 2,9 C 4,6 C 19,3 km/h (3 Bft)
21.11.2008 09:00 5,1 C 89 % 1000,8 hPa 0,6 l/m 4,0 km/h (1 Bft) S-SW 3,3 C 5,1 C 16,0 km/h (3 Bft)
21.11.2008 10:00 5,6 C 88 % 999,9 hPa 1,2 l/m 3,2 km/h (1 Bft) W-SW 3,8 C 5,6 C 16,1 km/h (3 Bft)
21.11.2008 11:00 5,6 C 87 % 998,5 hPa 1,8 l/m 12,1 km/h (2 Bft) W-SW 3,6 C 1,5 C 29,8 km/h (5 Bft)
21.11.2008 12:00 5,3 C 85 % 997,0 hPa 0,3 l/m 16,9 km/h (3 Bft) W-SW 2,9 C -1,5 C 37,0 km/h (5 Bft)
21.11.2008 13:00 5,2 C 85 % 994,9 hPa 0,6 l/m 13,5 km/h (3 Bft) SW 2,9 C 0,2 C 30,0 km/h (5 Bft)
21.11.2008 14:00 6,6 C 81 % 992,8 hPa 0,0 l/m 16,2 km/h (3 Bft) S-SW 3,6 C 0,6 C 36,2 km/h (5 Bft)
21.11.2008 15:00 7,9 C 72 % 991,1 hPa 0,0 l/m 13,3 km/h (3 Bft) NW 3,2 C 3,4 C 32,2 km/h (5 Bft)
21.11.2008 16:00 5,9 C 80 % 992,5 hPa 1,8 l/m 10,1 km/h (2 Bft) W-SW 2,7 C 3,2 C 23,3 km/h (4 Bft)
21.11.2008 17:00 5,1 C 84 % 992,7 hPa 2,4 l/m 14,6 km/h (3 Bft) NW 2,6 C -0,5 C 32,6 km/h (5 Bft)
21.11.2008 18:00 3,0 C 87 % 993,1 hPa 4,8 l/m 15,8 km/h (3 Bft) NW 0,9 C -3,6 C 35,4 km/h (5 Bft)
21.11.2008 19:00 5,1 C 72 % 992,1 hPa 0,0 l/m 24,4 km/h (4 Bft) W-NW 0,3 C -4,7 C 49,1 km/h (6 Bft)
21.11.2008 20:00 5,1 C 70 % 991,6 hPa 0,0 l/m 25,1 km/h (4 Bft) SW -0,0 C -4,9 C 56,7 km/h (7 Bft)
21.11.2008 21:00 3,1 C 80 % 993,9 hPa 2,4 l/m 17,5 km/h (3 Bft) NW -0,0 C -4,1 C 38,2 km/h (5 Bft)
21.11.2008 22:00 2,3 C 84 % 994,9 hPa 0,0 l/m 14,6 km/h (3 Bft) W-NW -0,2 C -3,9 C 27,0 km/h (4 Bft)
21.11.2008 23:00 2,3 C 78 % 996,3 hPa 0,0 l/m 11,2 km/h (2 Bft) NW -1,1 C -1,8 C 24,9 km/h (4 Bft)
22.11.2008 00:00 2,0 C 75 % 996,5 hPa 0,0 l/m 11,9 km/h (2 Bft) NW -2,0 C -2,5 C 27,7 km/h (4 Bft)
22.11.2008 01:00 1,6 C 70 % 997,0 hPa 0,0 l/m 11,4 km/h (2 Bft) W-NW -3,4 C -2,5 C 25,0 km/h (4 Bft)
22.11.2008 02:00 1,3 C 73 % 997,2 hPa 0,0 l/m 3,2 km/h (1 Bft) W -3,0 C 1,3 C 10,1 km/h (2 Bft)
22.11.2008 03:00 1,2 C 78 % 996,6 hPa 0,0 l/m 1,7 km/h (1 Bft) W -2,3 C 1,2 C 6,0 km/h (2 Bft)
22.11.2008 04:00 0,8 C 85 % 996,3 hPa 0,0 l/m 0,5 km/h (0 Bft) N -1,5 C 0,8 C 2,4 km/h (1 Bft)
22.11.2008 05:00 0,2 C 87 % 996,5 hPa 0,0 l/m 2,4 km/h (1 Bft) NW -1,8 C 0,2 C 8,5 km/h (2 Bft)
22.11.2008 06:00 0,1 C 84 % 996,4 hPa 0,0 l/m 4,3 km/h (1 Bft) W -2,3 C 0,1 C 11,7 km/h (2 Bft)
22.11.2008 07:00 -0,2 C 84 % 996,2 hPa 0,0 l/m 7,0 km/h (2 Bft) W -2,5 C -0,9 C 20,1 km/h (4 Bft)
22.11.2008 08:00 -0,2 C 83 % 995,7 hPa 0,0 l/m 9,7 km/h (2 Bft) W-NW -2,8 C -3,2 C 23,8 km/h (4 Bft)
22.11.2008 09:00 0,6 C 76 % 995,7 hPa 0,0 l/m 14,3 km/h (3 Bft) W-SW -3,1 C -5,8 C 35,4 km/h (5 Bft)
22.11.2008 10:00 1,4 C 70 % 996,6 hPa 0,3 l/m 13,5 km/h (3 Bft) W -3,5 C -4,3 C 32,6 km/h (5 Bft)
22.11.2008 11:00 1,4 C 70 % 996,8 hPa 0,3 l/m 12,5 km/h (3 Bft) W -3,5 C -3,7 C 28,6 km/h (4 Bft)
22.11.2008 12:00 1,2 C 71 % 996,4 hPa 0,6 l/m 14,3 km/h (3 Bft) W -3,5 C -5,1 C 30,6 km/h (5 Bft)
22.11.2008 13:00 1,3 C 71 % 996,0 hPa 0,3 l/m 15,1 km/h (3 Bft) NW -3,3 C -5,5 C 34,6 km/h (5 Bft)
22.11.2008 14:00 1,0 C 75 % 995,7 hPa 0,3 l/m 15,7 km/h (3 Bft) W -3,0 C -6,2 C 36,2 km/h (5 Bft)
22.11.2008 15:00 0,9 C 73 % 995,5 hPa 0,0 l/m 17,6 km/h (3 Bft) W -3,5 C -7,2 C 41,8 km/h (6 Bft)
22.11.2008 16:00 0,9 C 73 % 996,6 hPa 0,0 l/m 15,6 km/h (3 Bft) W -3,5 C -6,3 C 36,2 km/h (5 Bft)
22.11.2008 17:00 0,8 C 73 % 997,2 hPa 0,0 l/m 14,4 km/h (3 Bft) W -3,5 C -5,7 C 33,0 km/h (5 Bft)
22.11.2008 18:00 0,8 C 74 % 997,5 hPa 0,0 l/m 14,8 km/h (3 Bft) W -3,3 C -5,9 C 35,4 km/h (5 Bft)
22.11.2008 19:00 0,6 C 77 % 997,4 hPa 0,0 l/m 11,9 km/h (2 Bft) W -3,0 C -4,2 C 29,8 km/h (5 Bft)
22.11.2008 20:00 -0,2 C 86 % 997,3 hPa 0,0 l/m 10,0 km/h (2 Bft) SW -2,3 C -3,6 C 23,7 km/h (4 Bft)
22.11.2008 21:00 -0,1 C 83 % 997,7 hPa 0,0 l/m 13,1 km/h (3 Bft) W-NW -2,7 C -5,9 C 31,8 km/h (5 Bft)
22.11.2008 22:00 0,4 C 77 % 998,2 hPa 0,0 l/m 13,1 km/h (3 Bft) W-SW -3,1 C -5,2 C 32,6 km/h (5 Bft)
22.11.2008 23:00 0,6 C 74 % 998,4 hPa 0,0 l/m 11,6 km/h (2 Bft) W -3,5 C -4,0 C 27,8 km/h (4 Bft)
23.11.2008 00:00 0,3 C 72 % 998,7 hPa 0,0 l/m 12,7 km/h (3 Bft) W -4,2 C -5,1 C 31,8 km/h (5 Bft)
23.11.2008 01:00 -0,6 C 78 % 999,4 hPa 0,0 l/m 16,4 km/h (3 Bft) N-NW -3,9 C -8,5 C 35,8 km/h (5 Bft)
23.11.2008 02:00 -1,8 C 86 % 1000,5 hPa 0,0 l/m 15,0 km/h (3 Bft) NW -3,8 C -9,1 C 31,8 km/h (5 Bft)
23.11.2008 03:00 -1,4 C 83 % 1000,8 hPa 0,0 l/m 12,2 km/h (2 Bft) W -4,0 C -6,7 C 26,9 km/h (4 Bft)
23.11.2008 04:00 -0,6 C 72 % 1001,2 hPa 0,0 l/m 12,5 km/h (3 Bft) W -5,0 C -6,0 C 29,8 km/h (5 Bft)
23.11.2008 05:00 -0,4 C 67 % 1001,5 hPa 0,0 l/m 13,6 km/h (3 Bft) W -5,9 C -6,5 C 29,4 km/h (5 Bft)
23.11.2008 06:00 -0,3 C 63 % 1001,5 hPa 0,0 l/m 15,6 km/h (3 Bft) W-SW -6,5 C -7,7 C 34,6 km/h (5 Bft)
23.11.2008 07:00 -0,3 C 63 % 1002,0 hPa 0,0 l/m 14,1 km/h (3 Bft) W-NW -6,5 C -6,8 C 37,0 km/h (5 Bft)
23.11.2008 08:00 0,1 C 62 % 1002,6 hPa 0,0 l/m 18,3 km/h (3 Bft) S-SO -6,4 C -8,7 C 43,0 km/h (6 Bft)
23.11.2008 09:00 0,5 C 64 % 1003,2 hPa 0,0 l/m 16,8 km/h (3 Bft) W -5,5 C -7,3 C 40,6 km/h (6 Bft)
23.11.2008 10:00 0,8 C 66 % 1003,8 hPa 0,0 l/m 17,7 km/h (3 Bft) W-SW -4,8 C -7,5 C 36,6 km/h (5 Bft)
23.11.2008 11:00 1,3 C 68 % 1003,9 hPa 0,0 l/m 16,9 km/h (3 Bft) W-SW -4,0 C -6,5 C 37,4 km/h (5 Bft)
23.11.2008 12:00 1,5 C 68 % 1003,9 hPa 0,0 l/m 17,2 km/h (3 Bft) W-NW -3,7 C -6,3 C 41,8 km/h (6 Bft)
23.11.2008 13:00 1,5 C 67 % 1004,2 hPa 0,0 l/m 19,3 km/h (3 Bft) W-NW -4,0 C -7,4 C 44,7 km/h (6 Bft)
23.11.2008 14:00 1,4 C 64 % 1004,3 hPa 0,0 l/m 21,5 km/h (4 Bft) W-NW -4,6 C -8,5 C 47,5 km/h (6 Bft)
23.11.2008 15:00 1,3 C 65 % 1004,6 hPa 0,0 l/m 19,5 km/h (3 Bft) W-SW -4,6 C -7,7 C 44,3 km/h (6 Bft)
23.11.2008 16:00 1,1 C 64 % 1004,6 hPa 0,0 l/m 16,7 km/h (3 Bft) W-NW -5,1 C -6,6 C 36,6 km/h (5 Bft)
23.11.2008 17:00 0,9 C 63 % 1004,4 hPa 0,0 l/m 13,9 km/h (3 Bft) W-NW -5,3 C -5,2 C 31,4 km/h (5 Bft)
23.11.2008 18:00 0,8 C 66 % 1003,5 hPa 0,0 l/m 13,7 km/h (3 Bft) W -5,0 C -5,2 C 33,0 km/h (5 Bft)
23.11.2008 19:00 0,5 C 64 % 1003,7 hPa 0,0 l/m 4,4 km/h (1 Bft) S -5,5 C -0,4 C 14,9 km/h (3 Bft)
23.11.2008 20:00 -0,3 C 68 % 1003,2 hPa 0,0 l/m 0,4 km/h (0 Bft) N -5,6 C -0,3 C 4,4 km/h (1 Bft)
23.11.2008 21:00 -1,3 C 70 % 1002,5 hPa 0,0 l/m 0,2 km/h (0 Bft) N -6,2 C -1,3 C 1,2 km/h (1 Bft)
23.11.2008 22:00 -2,5 C 75 % 1001,1 hPa 0,0 l/m 0,1 km/h (0 Bft) N -6,4 C -2,5 C 1,6 km/h (1 Bft)
23.11.2008 23:00 -3,1 C 76 % 999,6 hPa 0,0 l/m 0,0 km/h (0 Bft) N -6,7 C -3,1 C 0,4 km/h (0 Bft)
Min-Datum _ 18.11.08 20.11.08 21.11.08 - 17.11.08 - 23.11.08 23.11.08 18.11.08
_ Min-Zeit 07:15 13:00 15:45 - 22:15 - 23:45 02:15 00:00
Minimum _ -4,2 C 57 % 990,8 hPa - 0,0 km/h (0 Bft) - -7,0 C -10,7 C 0,0 km/h (0 Bft)
Max-Datum _ 20.11.08 18.11.08 17.11.08 21.11.08 21.11.08 - 17.11.08 20.11.08 20.11.08
_ Max-Zeit 23:45 08:30 11:00 01:30 19:45 - 00:45 16:00 10:00
Maximum _ 11,4 C 90 % 1028,3 hPa 7,2 l/m 26,9 km/h
W-NW (4 Bft)
- 5,8 C 9,1 C 64,4 km/h
W-SW (8 Bft)
Durchschnitt _ 4,3 C 74 % 1009,8 hPa #51,9 l/m 9,5 km/h (2 Bft) W -0,1 C 1,1 C 23,8 km/h (4 Bft)